sensor_id;sensor_type;location;lat;lon;timestamp;P1;durP1;ratioP1;P2;durP2;ratioP2
32780;SDS011;19136;47.032;15.502;2023-07-20T00:00:52;20.15;;;6.35;;
32780;SDS011;19136;47.032;15.502;2023-07-20T00:03:19;11.88;;;6.40;;
32780;SDS011;19136;47.032;15.502;2023-07-20T00:05:50;15.93;;;6.10;;
32780;SDS011;19136;47.032;15.502;2023-07-20T00:08:16;10.45;;;5.80;;
32780;SDS011;19136;47.032;15.502;2023-07-20T00:10:43;12.93;;;5.65;;
32780;SDS011;19136;47.032;15.502;2023-07-20T00:13:09;14.63;;;5.45;;
32780;SDS011;19136;47.032;15.502;2023-07-20T00:15:35;18.27;;;6.63;;
32780;SDS011;19136;47.032;15.502;2023-07-20T00:18:01;24.58;;;7.20;;
32780;SDS011;19136;47.032;15.502;2023-07-20T00:20:26;10.65;;;5.88;;
32780;SDS011;19136;47.032;15.502;2023-07-20T00:22:52;15.35;;;5.88;;
32780;SDS011;19136;47.032;15.502;2023-07-20T00:25:20;19.10;;;6.03;;
32780;SDS011;19136;47.032;15.502;2023-07-20T00:27:45;14.80;;;6.10;;
32780;SDS011;19136;47.032;15.502;2023-07-20T00:30:11;20.17;;;6.85;;
32780;SDS011;19136;47.032;15.502;2023-07-20T00:32:37;16.45;;;5.95;;
32780;SDS011;19136;47.032;15.502;2023-07-20T00:35:03;16.58;;;6.05;;
32780;SDS011;19136;47.032;15.502;2023-07-20T00:37:29;15.68;;;5.93;;
32780;SDS011;19136;47.032;15.502;2023-07-20T00:39:54;11.70;;;5.95;;
32780;SDS011;19136;47.032;15.502;2023-07-20T00:42:20;13.98;;;5.85;;
32780;SDS011;19136;47.032;15.502;2023-07-20T00:44:45;17.45;;;6.60;;
32780;SDS011;19136;47.032;15.502;2023-07-20T00:47:11;19.67;;;6.47;;
32780;SDS011;19136;47.032;15.502;2023-07-20T00:49:37;12.90;;;6.78;;
32780;SDS011;19136;47.032;15.502;2023-07-20T00:52:03;17.63;;;5.53;;
32780;SDS011;19136;47.032;15.502;2023-07-20T00:54:29;16.20;;;6.10;;
32780;SDS011;19136;47.032;15.502;2023-07-20T00:56:55;20.63;;;6.38;;
32780;SDS011;19136;47.032;15.502;2023-07-20T00:59:20;11.05;;;5.53;;
32780;SDS011;19136;47.032;15.502;2023-07-20T01:01:46;14.05;;;6.22;;
32780;SDS011;19136;47.032;15.502;2023-07-20T01:04:12;13.75;;;6.57;;
32780;SDS011;19136;47.032;15.502;2023-07-20T01:09:19;15.05;;;5.57;;
32780;SDS011;19136;47.032;15.502;2023-07-20T01:14:49;17.42;;;5.32;;
32780;SDS011;19136;47.032;15.502;2023-07-20T01:17:15;12.60;;;5.82;;
32780;SDS011;19136;47.032;15.502;2023-07-20T01:19:41;15.10;;;6.72;;
32780;SDS011;19136;47.032;15.502;2023-07-20T01:22:15;13.65;;;6.05;;
32780;SDS011;19136;47.032;15.502;2023-07-20T01:30:16;15.05;;;5.95;;
32780;SDS011;19136;47.032;15.502;2023-07-20T01:32:43;10.68;;;5.80;;
32780;SDS011;19136;47.032;15.502;2023-07-20T01:35:10;17.75;;;5.82;;
32780;SDS011;19136;47.032;15.502;2023-07-20T01:37:40;10.80;;;5.68;;
32780;SDS011;19136;47.032;15.502;2023-07-20T01:40:06;21.08;;;6.53;;
32780;SDS011;19136;47.032;15.502;2023-07-20T01:42:32;21.88;;;6.18;;
32780;SDS011;19136;47.032;15.502;2023-07-20T01:44:58;14.88;;;5.30;;
32780;SDS011;19136;47.032;15.502;2023-07-20T01:47:23;13.55;;;5.85;;
32780;SDS011;19136;47.032;15.502;2023-07-20T01:49:49;18.90;;;5.97;;
32780;SDS011;19136;47.032;15.502;2023-07-20T01:52:15;13.45;;;5.82;;
32780;SDS011;19136;47.032;15.502;2023-07-20T01:54:40;13.38;;;6.55;;
32780;SDS011;19136;47.032;15.502;2023-07-20T01:57:06;15.52;;;5.50;;
32780;SDS011;19136;47.032;15.502;2023-07-20T01:59:32;18.33;;;6.18;;
32780;SDS011;19136;47.032;15.502;2023-07-20T02:01:57;12.25;;;5.57;;
32780;SDS011;19136;47.032;15.502;2023-07-20T02:04:23;13.93;;;7.07;;
32780;SDS011;19136;47.032;15.502;2023-07-20T02:06:48;19.50;;;5.72;;
32780;SDS011;19136;47.032;15.502;2023-07-20T02:09:14;10.20;;;5.80;;
32780;SDS011;19136;47.032;15.502;2023-07-20T02:11:39;10.98;;;6.00;;
32780;SDS011;19136;47.032;15.502;2023-07-20T02:14:05;12.45;;;6.30;;
32780;SDS011;19136;47.032;15.502;2023-07-20T02:16:31;17.60;;;5.00;;
32780;SDS011;19136;47.032;15.502;2023-07-20T02:18:56;13.98;;;5.15;;
32780;SDS011;19136;47.032;15.502;2023-07-20T02:21:23;14.20;;;5.72;;
32780;SDS011;19136;47.032;15.502;2023-07-20T02:23:49;16.98;;;5.85;;
32780;SDS011;19136;47.032;15.502;2023-07-20T02:26:14;11.05;;;5.47;;
32780;SDS011;19136;47.032;15.502;2023-07-20T02:28:40;11.63;;;5.50;;
32780;SDS011;19136;47.032;15.502;2023-07-20T02:31:06;13.38;;;5.68;;
32780;SDS011;19136;47.032;15.502;2023-07-20T02:33:32;18.70;;;6.50;;
32780;SDS011;19136;47.032;15.502;2023-07-20T02:35:58;14.85;;;5.93;;
32780;SDS011;19136;47.032;15.502;2023-07-20T02:38:23;13.95;;;5.68;;
32780;SDS011;19136;47.032;15.502;2023-07-20T02:40:49;12.30;;;5.90;;
32780;SDS011;19136;47.032;15.502;2023-07-20T02:43:15;17.88;;;6.78;;
32780;SDS011;19136;47.032;15.502;2023-07-20T02:45:41;11.85;;;6.28;;
32780;SDS011;19136;47.032;15.502;2023-07-20T02:48:08;10.38;;;5.55;;
32780;SDS011;19136;47.032;15.502;2023-07-20T02:50:33;15.48;;;5.50;;
32780;SDS011;19136;47.032;15.502;2023-07-20T02:53:00;13.45;;;5.88;;
32780;SDS011;19136;47.032;15.502;2023-07-20T02:55:26;14.18;;;5.78;;
32780;SDS011;19136;47.032;15.502;2023-07-20T02:57:52;14.10;;;5.45;;
32780;SDS011;19136;47.032;15.502;2023-07-20T03:00:17;12.75;;;5.40;;
32780;SDS011;19136;47.032;15.502;2023-07-20T03:02:45;13.57;;;5.40;;
32780;SDS011;19136;47.032;15.502;2023-07-20T03:05:15;10.45;;;5.65;;
32780;SDS011;19136;47.032;15.502;2023-07-20T03:07:42;11.65;;;5.50;;
32780;SDS011;19136;47.032;15.502;2023-07-20T03:10:09;14.75;;;5.78;;
32780;SDS011;19136;47.032;15.502;2023-07-20T03:12:35;10.30;;;5.22;;
32780;SDS011;19136;47.032;15.502;2023-07-20T03:15:03;10.38;;;4.70;;
32780;SDS011;19136;47.032;15.502;2023-07-20T03:17:30;13.07;;;6.30;;
32780;SDS011;19136;47.032;15.502;2023-07-20T03:19:56;20.63;;;7.03;;
32780;SDS011;19136;47.032;15.502;2023-07-20T03:22:22;18.45;;;6.22;;
32780;SDS011;19136;47.032;15.502;2023-07-20T03:24:49;10.50;;;5.63;;
32780;SDS011;19136;47.032;15.502;2023-07-20T03:27:16;12.27;;;6.80;;
32780;SDS011;19136;47.032;15.502;2023-07-20T03:29:42;11.43;;;5.47;;
32780;SDS011;19136;47.032;15.502;2023-07-20T03:32:09;14.82;;;5.50;;
32780;SDS011;19136;47.032;15.502;2023-07-20T03:34:35;9.63;;;5.18;;
32780;SDS011;19136;47.032;15.502;2023-07-20T03:37:00;11.60;;;4.90;;
32780;SDS011;19136;47.032;15.502;2023-07-20T03:39:26;10.48;;;4.93;;
32780;SDS011;19136;47.032;15.502;2023-07-20T03:41:53;10.98;;;5.40;;
32780;SDS011;19136;47.032;15.502;2023-07-20T03:44:19;16.73;;;5.43;;
32780;SDS011;19136;47.032;15.502;2023-07-20T03:46:45;9.32;;;5.50;;
32780;SDS011;19136;47.032;15.502;2023-07-20T03:49:10;11.80;;;5.03;;
32780;SDS011;19136;47.032;15.502;2023-07-20T03:51:36;12.65;;;4.95;;
32780;SDS011;19136;47.032;15.502;2023-07-20T03:54:01;14.18;;;5.07;;
32780;SDS011;19136;47.032;15.502;2023-07-20T03:56:27;13.93;;;5.70;;
32780;SDS011;19136;47.032;15.502;2023-07-20T03:58:53;12.32;;;5.32;;
32780;SDS011;19136;47.032;15.502;2023-07-20T04:01:19;10.25;;;5.68;;
32780;SDS011;19136;47.032;15.502;2023-07-20T04:03:44;11.38;;;5.43;;
32780;SDS011;19136;47.032;15.502;2023-07-20T04:06:10;11.80;;;5.32;;
32780;SDS011;19136;47.032;15.502;2023-07-20T04:08:36;15.65;;;6.03;;
32780;SDS011;19136;47.032;15.502;2023-07-20T04:11:02;14.77;;;5.53;;
32780;SDS011;19136;47.032;15.502;2023-07-20T04:13:29;12.15;;;5.35;;
32780;SDS011;19136;47.032;15.502;2023-07-20T04:15:58;13.98;;;5.50;;
32780;SDS011;19136;47.032;15.502;2023-07-20T04:18:24;9.10;;;5.30;;
32780;SDS011;19136;47.032;15.502;2023-07-20T04:20:49;12.18;;;5.65;;
32780;SDS011;19136;47.032;15.502;2023-07-20T04:23:15;12.48;;;5.43;;
32780;SDS011;19136;47.032;15.502;2023-07-20T04:25:41;13.70;;;4.70;;
32780;SDS011;19136;47.032;15.502;2023-07-20T04:28:10;10.60;;;5.07;;
32780;SDS011;19136;47.032;15.502;2023-07-20T04:30:37;18.73;;;4.85;;
32780;SDS011;19136;47.032;15.502;2023-07-20T04:33:03;9.18;;;4.85;;
32780;SDS011;19136;47.032;15.502;2023-07-20T04:35:46;16.58;;;4.97;;
32780;SDS011;19136;47.032;15.502;2023-07-20T04:38:18;11.15;;;5.10;;
32780;SDS011;19136;47.032;15.502;2023-07-20T04:40:48;12.93;;;5.22;;
32780;SDS011;19136;47.032;15.502;2023-07-20T04:43:15;16.92;;;4.95;;
32780;SDS011;19136;47.032;15.502;2023-07-20T04:45:41;9.10;;;5.00;;
32780;SDS011;19136;47.032;15.502;2023-07-20T04:48:11;13.65;;;5.00;;
32780;SDS011;19136;47.032;15.502;2023-07-20T04:50:42;11.80;;;5.35;;
32780;SDS011;19136;47.032;15.502;2023-07-20T04:53:12;11.70;;;5.35;;
32780;SDS011;19136;47.032;15.502;2023-07-20T04:55:38;16.70;;;5.57;;
32780;SDS011;19136;47.032;15.502;2023-07-20T04:58:05;13.18;;;5.28;;
32780;SDS011;19136;47.032;15.502;2023-07-20T05:00:34;8.70;;;4.43;;
32780;SDS011;19136;47.032;15.502;2023-07-20T05:02:59;14.30;;;5.13;;
32780;SDS011;19136;47.032;15.502;2023-07-20T05:05:25;14.38;;;5.95;;
32780;SDS011;19136;47.032;15.502;2023-07-20T05:07:51;14.27;;;4.80;;
32780;SDS011;19136;47.032;15.502;2023-07-20T05:10:17;10.27;;;4.82;;
32780;SDS011;19136;47.032;15.502;2023-07-20T05:12:43;11.68;;;5.00;;
32780;SDS011;19136;47.032;15.502;2023-07-20T05:15:09;14.80;;;4.60;;
32780;SDS011;19136;47.032;15.502;2023-07-20T05:17:36;14.00;;;5.32;;
32780;SDS011;19136;47.032;15.502;2023-07-20T05:20:02;11.45;;;4.57;;
32780;SDS011;19136;47.032;15.502;2023-07-20T05:22:30;9.18;;;4.40;;
32780;SDS011;19136;47.032;15.502;2023-07-20T05:24:55;10.07;;;4.97;;
32780;SDS011;19136;47.032;15.502;2023-07-20T05:27:21;10.73;;;5.15;;
32780;SDS011;19136;47.032;15.502;2023-07-20T05:29:46;13.27;;;5.05;;
32780;SDS011;19136;47.032;15.502;2023-07-20T05:32:12;14.45;;;4.57;;
32780;SDS011;19136;47.032;15.502;2023-07-20T05:34:38;7.93;;;4.20;;
32780;SDS011;19136;47.032;15.502;2023-07-20T05:37:04;9.18;;;4.50;;
32780;SDS011;19136;47.032;15.502;2023-07-20T05:39:31;12.20;;;4.15;;
32780;SDS011;19136;47.032;15.502;2023-07-20T05:41:58;9.40;;;4.43;;
32780;SDS011;19136;47.032;15.502;2023-07-20T05:44:23;10.05;;;4.95;;
32780;SDS011;19136;47.032;15.502;2023-07-20T05:46:49;11.23;;;5.40;;
32780;SDS011;19136;47.032;15.502;2023-07-20T05:49:14;10.02;;;4.53;;
32780;SDS011;19136;47.032;15.502;2023-07-20T05:51:40;16.55;;;5.32;;
32780;SDS011;19136;47.032;15.502;2023-07-20T05:54:05;21.17;;;5.65;;
32780;SDS011;19136;47.032;15.502;2023-07-20T05:56:31;30.08;;;6.65;;
32780;SDS011;19136;47.032;15.502;2023-07-20T05:58:57;21.00;;;7.18;;
32780;SDS011;19136;47.032;15.502;2023-07-20T06:01:23;14.52;;;5.50;;
32780;SDS011;19136;47.032;15.502;2023-07-20T06:03:51;8.95;;;4.55;;
32780;SDS011;19136;47.032;15.502;2023-07-20T06:06:17;8.52;;;4.68;;
32780;SDS011;19136;47.032;15.502;2023-07-20T06:08:43;8.13;;;4.78;;
32780;SDS011;19136;47.032;15.502;2023-07-20T06:11:08;11.55;;;4.85;;
32780;SDS011;19136;47.032;15.502;2023-07-20T06:13:34;14.35;;;5.22;;
32780;SDS011;19136;47.032;15.502;2023-07-20T06:16:00;11.80;;;4.72;;
32780;SDS011;19136;47.032;15.502;2023-07-20T06:18:26;9.45;;;4.80;;
32780;SDS011;19136;47.032;15.502;2023-07-20T06:20:52;11.82;;;4.82;;
32780;SDS011;19136;47.032;15.502;2023-07-20T06:23:18;12.65;;;5.22;;
32780;SDS011;19136;47.032;15.502;2023-07-20T06:25:44;10.60;;;4.85;;
32780;SDS011;19136;47.032;15.502;2023-07-20T06:28:10;13.45;;;5.65;;
32780;SDS011;19136;47.032;15.502;2023-07-20T06:30:36;12.98;;;6.32;;
32780;SDS011;19136;47.032;15.502;2023-07-20T06:33:01;17.40;;;5.18;;
32780;SDS011;19136;47.032;15.502;2023-07-20T06:35:27;18.67;;;4.93;;
32780;SDS011;19136;47.032;15.502;2023-07-20T06:37:53;11.77;;;5.13;;
32780;SDS011;19136;47.032;15.502;2023-07-20T06:40:18;7.28;;;5.07;;
32780;SDS011;19136;47.032;15.502;2023-07-20T06:42:44;8.57;;;4.95;;
32780;SDS011;19136;47.032;15.502;2023-07-20T06:45:10;12.60;;;5.55;;
32780;SDS011;19136;47.032;15.502;2023-07-20T06:47:38;12.95;;;4.35;;
32780;SDS011;19136;47.032;15.502;2023-07-20T06:50:04;11.90;;;5.05;;
32780;SDS011;19136;47.032;15.502;2023-07-20T06:52:31;12.05;;;4.88;;
32780;SDS011;19136;47.032;15.502;2023-07-20T06:54:56;16.70;;;5.68;;
32780;SDS011;19136;47.032;15.502;2023-07-20T06:57:22;13.38;;;5.03;;
32780;SDS011;19136;47.032;15.502;2023-07-20T06:59:47;12.75;;;5.13;;
32780;SDS011;19136;47.032;15.502;2023-07-20T07:02:13;10.48;;;4.47;;
32780;SDS011;19136;47.032;15.502;2023-07-20T07:04:39;9.85;;;4.60;;
32780;SDS011;19136;47.032;15.502;2023-07-20T07:07:05;14.55;;;4.85;;
32780;SDS011;19136;47.032;15.502;2023-07-20T07:09:30;15.55;;;5.28;;
32780;SDS011;19136;47.032;15.502;2023-07-20T07:11:56;14.60;;;5.60;;
32780;SDS011;19136;47.032;15.502;2023-07-20T07:14:22;13.60;;;4.75;;
32780;SDS011;19136;47.032;15.502;2023-07-20T07:16:48;13.27;;;5.57;;
32780;SDS011;19136;47.032;15.502;2023-07-20T07:19:13;11.05;;;4.82;;
32780;SDS011;19136;47.032;15.502;2023-07-20T07:21:39;19.55;;;5.10;;
32780;SDS011;19136;47.032;15.502;2023-07-20T07:24:04;10.77;;;5.05;;
32780;SDS011;19136;47.032;15.502;2023-07-20T07:26:32;9.73;;;5.05;;
32780;SDS011;19136;47.032;15.502;2023-07-20T07:28:58;13.38;;;5.00;;
32780;SDS011;19136;47.032;15.502;2023-07-20T07:31:24;15.63;;;5.72;;
32780;SDS011;19136;47.032;15.502;2023-07-20T07:33:50;11.57;;;4.95;;
32780;SDS011;19136;47.032;15.502;2023-07-20T07:36:16;10.25;;;4.97;;
32780;SDS011;19136;47.032;15.502;2023-07-20T07:38:41;13.82;;;4.88;;
32780;SDS011;19136;47.032;15.502;2023-07-20T07:41:08;12.63;;;5.15;;
32780;SDS011;19136;47.032;15.502;2023-07-20T07:43:33;11.73;;;4.80;;
32780;SDS011;19136;47.032;15.502;2023-07-20T07:46:00;13.15;;;4.85;;
32780;SDS011;19136;47.032;15.502;2023-07-20T07:48:26;12.65;;;4.50;;
32780;SDS011;19136;47.032;15.502;2023-07-20T07:50:53;11.50;;;5.03;;
32780;SDS011;19136;47.032;15.502;2023-07-20T07:53:19;17.00;;;5.25;;
32780;SDS011;19136;47.032;15.502;2023-07-20T07:55:47;13.32;;;4.57;;
32780;SDS011;19136;47.032;15.502;2023-07-20T07:58:13;16.63;;;5.38;;
32780;SDS011;19136;47.032;15.502;2023-07-20T08:00:39;8.10;;;4.38;;
32780;SDS011;19136;47.032;15.502;2023-07-20T08:03:05;21.98;;;4.57;;
32780;SDS011;19136;47.032;15.502;2023-07-20T08:05:31;12.63;;;4.43;;
32780;SDS011;19136;47.032;15.502;2023-07-20T08:07:57;10.10;;;4.43;;
32780;SDS011;19136;47.032;15.502;2023-07-20T08:10:22;8.35;;;4.25;;
32780;SDS011;19136;47.032;15.502;2023-07-20T08:12:48;8.50;;;4.25;;
32780;SDS011;19136;47.032;15.502;2023-07-20T08:15:14;11.70;;;4.15;;
32780;SDS011;19136;47.032;15.502;2023-07-20T08:17:40;8.20;;;4.32;;
32780;SDS011;19136;47.032;15.502;2023-07-20T08:20:08;11.10;;;4.00;;
32780;SDS011;19136;47.032;15.502;2023-07-20T08:22:37;13.60;;;4.80;;
32780;SDS011;19136;47.032;15.502;2023-07-20T08:25:04;9.05;;;4.70;;
32780;SDS011;19136;47.032;15.502;2023-07-20T08:27:35;13.95;;;4.57;;
32780;SDS011;19136;47.032;15.502;2023-07-20T08:30:02;13.15;;;5.07;;
32780;SDS011;19136;47.032;15.502;2023-07-20T08:32:28;13.13;;;4.90;;
32780;SDS011;19136;47.032;15.502;2023-07-20T08:35:03;11.27;;;4.50;;
32780;SDS011;19136;47.032;15.502;2023-07-20T08:37:29;8.77;;;4.25;;
32780;SDS011;19136;47.032;15.502;2023-07-20T08:39:55;12.32;;;4.55;;
32780;SDS011;19136;47.032;15.502;2023-07-20T08:42:20;9.35;;;4.30;;
32780;SDS011;19136;47.032;15.502;2023-07-20T08:44:48;7.85;;;4.45;;
32780;SDS011;19136;47.032;15.502;2023-07-20T08:47:15;13.13;;;3.88;;
32780;SDS011;19136;47.032;15.502;2023-07-20T08:49:42;8.25;;;4.20;;
32780;SDS011;19136;47.032;15.502;2023-07-20T08:52:08;10.00;;;4.10;;
32780;SDS011;19136;47.032;15.502;2023-07-20T08:54:34;5.93;;;3.67;;
32780;SDS011;19136;47.032;15.502;2023-07-20T08:57:01;12.00;;;4.28;;
32780;SDS011;19136;47.032;15.502;2023-07-20T08:59:28;6.57;;;4.18;;
32780;SDS011;19136;47.032;15.502;2023-07-20T09:01:55;6.78;;;3.88;;
32780;SDS011;19136;47.032;15.502;2023-07-20T09:04:22;9.85;;;4.03;;
32780;SDS011;19136;47.032;15.502;2023-07-20T09:06:48;7.82;;;3.88;;
32780;SDS011;19136;47.032;15.502;2023-07-20T09:09:14;7.78;;;3.95;;
32780;SDS011;19136;47.032;15.502;2023-07-20T09:11:42;9.70;;;3.95;;
32780;SDS011;19136;47.032;15.502;2023-07-20T09:14:15;10.85;;;3.83;;
32780;SDS011;19136;47.032;15.502;2023-07-20T09:16:48;9.30;;;3.88;;
32780;SDS011;19136;47.032;15.502;2023-07-20T09:19:15;12.93;;;3.60;;
32780;SDS011;19136;47.032;15.502;2023-07-20T09:21:46;13.45;;;3.95;;
32780;SDS011;19136;47.032;15.502;2023-07-20T09:24:15;6.80;;;3.70;;
32780;SDS011;19136;47.032;15.502;2023-07-20T09:26:44;6.38;;;3.80;;
32780;SDS011;19136;47.032;15.502;2023-07-20T09:29:10;9.73;;;3.85;;
32780;SDS011;19136;47.032;15.502;2023-07-20T09:31:37;5.18;;;3.47;;
32780;SDS011;19136;47.032;15.502;2023-07-20T09:34:03;6.53;;;3.58;;
32780;SDS011;19136;47.032;15.502;2023-07-20T09:36:31;8.73;;;4.10;;
32780;SDS011;19136;47.032;15.502;2023-07-20T09:38:59;7.70;;;3.70;;
32780;SDS011;19136;47.032;15.502;2023-07-20T09:41:25;12.63;;;3.78;;
32780;SDS011;19136;47.032;15.502;2023-07-20T09:43:52;7.45;;;3.50;;
32780;SDS011;19136;47.032;15.502;2023-07-20T09:46:22;8.77;;;3.88;;
32780;SDS011;19136;47.032;15.502;2023-07-20T09:48:53;5.72;;;3.83;;
32780;SDS011;19136;47.032;15.502;2023-07-20T09:51:21;7.40;;;4.25;;
32780;SDS011;19136;47.032;15.502;2023-07-20T09:53:53;6.00;;;3.97;;
32780;SDS011;19136;47.032;15.502;2023-07-20T09:56:22;6.87;;;3.73;;
32780;SDS011;19136;47.032;15.502;2023-07-20T09:58:54;5.60;;;3.97;;
32780;SDS011;19136;47.032;15.502;2023-07-20T10:01:20;8.07;;;4.38;;
32780;SDS011;19136;47.032;15.502;2023-07-20T10:03:47;9.85;;;4.50;;
32780;SDS011;19136;47.032;15.502;2023-07-20T10:06:15;10.20;;;3.95;;
32780;SDS011;19136;47.032;15.502;2023-07-20T10:08:44;6.75;;;3.75;;
32780;SDS011;19136;47.032;15.502;2023-07-20T10:11:12;9.10;;;4.40;;
32780;SDS011;19136;47.032;15.502;2023-07-20T10:13:43;7.32;;;4.57;;
32780;SDS011;19136;47.032;15.502;2023-07-20T10:16:18;8.02;;;4.63;;
32780;SDS011;19136;47.032;15.502;2023-07-20T10:18:59;7.00;;;4.10;;
32780;SDS011;19136;47.032;15.502;2023-07-20T10:21:33;10.10;;;4.25;;
32780;SDS011;19136;47.032;15.502;2023-07-20T10:24:02;8.20;;;4.25;;
32780;SDS011;19136;47.032;15.502;2023-07-20T10:26:28;10.25;;;3.85;;
32780;SDS011;19136;47.032;15.502;2023-07-20T10:28:56;10.50;;;3.90;;
32780;SDS011;19136;47.032;15.502;2023-07-20T10:31:26;13.35;;;4.50;;
32780;SDS011;19136;47.032;15.502;2023-07-20T10:33:56;11.43;;;4.20;;
32780;SDS011;19136;47.032;15.502;2023-07-20T10:36:27;7.80;;;3.73;;
32780;SDS011;19136;47.032;15.502;2023-07-20T10:38:55;6.90;;;3.45;;
32780;SDS011;19136;47.032;15.502;2023-07-20T10:41:29;7.95;;;4.20;;
32780;SDS011;19136;47.032;15.502;2023-07-20T10:44:03;10.60;;;3.53;;
32780;SDS011;19136;47.032;15.502;2023-07-20T10:46:34;7.10;;;3.72;;
32780;SDS011;19136;47.032;15.502;2023-07-20T10:49:11;7.60;;;3.78;;
32780;SDS011;19136;47.032;15.502;2023-07-20T10:51:48;7.20;;;3.72;;
32780;SDS011;19136;47.032;15.502;2023-07-20T10:56:45;6.80;;;3.90;;
32780;SDS011;19136;47.032;15.502;2023-07-20T10:59:20;5.68;;;3.30;;
32780;SDS011;19136;47.032;15.502;2023-07-20T11:01:50;4.95;;;3.50;;
32780;SDS011;19136;47.032;15.502;2023-07-20T11:07:07;8.35;;;3.35;;
32780;SDS011;19136;47.032;15.502;2023-07-20T11:09:38;12.30;;;4.07;;
32780;SDS011;19136;47.032;15.502;2023-07-20T11:12:14;5.90;;;3.58;;
32780;SDS011;19136;47.032;15.502;2023-07-20T11:14:52;7.00;;;3.40;;
32780;SDS011;19136;47.032;15.502;2023-07-20T11:17:28;4.93;;;3.17;;
32780;SDS011;19136;47.032;15.502;2023-07-20T11:19:55;4.47;;;3.05;;
32780;SDS011;19136;47.032;15.502;2023-07-20T11:22:22;4.93;;;3.13;;
32780;SDS011;19136;47.032;15.502;2023-07-20T11:24:48;4.85;;;2.92;;
32780;SDS011;19136;47.032;15.502;2023-07-20T11:27:17;4.15;;;3.10;;
32780;SDS011;19136;47.032;15.502;2023-07-20T11:29:48;4.75;;;2.75;;
32780;SDS011;19136;47.032;15.502;2023-07-20T11:32:25;3.33;;;2.67;;
32780;SDS011;19136;47.032;15.502;2023-07-20T11:34:53;5.32;;;3.00;;
32780;SDS011;19136;47.032;15.502;2023-07-20T11:37:21;6.45;;;2.90;;
32780;SDS011;19136;47.032;15.502;2023-07-20T11:39:56;5.60;;;3.10;;
32780;SDS011;19136;47.032;15.502;2023-07-20T11:42:22;7.05;;;2.67;;
32780;SDS011;19136;47.032;15.502;2023-07-20T11:44:51;7.32;;;3.05;;
32780;SDS011;19136;47.032;15.502;2023-07-20T11:47:19;5.70;;;3.00;;
32780;SDS011;19136;47.032;15.502;2023-07-20T11:49:48;6.65;;;3.17;;
32780;SDS011;19136;47.032;15.502;2023-07-20T11:52:22;6.78;;;3.20;;
32780;SDS011;19136;47.032;15.502;2023-07-20T11:54:48;5.82;;;3.40;;
32780;SDS011;19136;47.032;15.502;2023-07-20T11:57:18;5.90;;;3.53;;
32780;SDS011;19136;47.032;15.502;2023-07-20T11:59:55;8.00;;;3.97;;
32780;SDS011;19136;47.032;15.502;2023-07-20T12:02:23;5.90;;;2.88;;
32780;SDS011;19136;47.032;15.502;2023-07-20T12:04:55;7.43;;;3.58;;
32780;SDS011;19136;47.032;15.502;2023-07-20T12:07:28;6.22;;;3.38;;
32780;SDS011;19136;47.032;15.502;2023-07-20T12:13:04;6.10;;;3.72;;
32780;SDS011;19136;47.032;15.502;2023-07-20T12:15:36;4.38;;;3.13;;
32780;SDS011;19136;47.032;15.502;2023-07-20T12:18:22;6.20;;;3.10;;
32780;SDS011;19136;47.032;15.502;2023-07-20T12:20:58;4.70;;;3.13;;
32780;SDS011;19136;47.032;15.502;2023-07-20T12:23:25;5.82;;;3.50;;
32780;SDS011;19136;47.032;15.502;2023-07-20T12:25:58;7.45;;;3.40;;
32780;SDS011;19136;47.032;15.502;2023-07-20T12:28:39;5.85;;;3.15;;
32780;SDS011;19136;47.032;15.502;2023-07-20T12:31:28;6.00;;;2.85;;
32780;SDS011;19136;47.032;15.502;2023-07-20T12:33:56;4.22;;;2.55;;
32780;SDS011;19136;47.032;15.502;2023-07-20T12:36:23;4.38;;;2.67;;
32780;SDS011;19136;47.032;15.502;2023-07-20T12:38:50;4.30;;;2.17;;
32780;SDS011;19136;47.032;15.502;2023-07-20T12:41:17;3.97;;;2.40;;
32780;SDS011;19136;47.032;15.502;2023-07-20T12:43:44;4.18;;;2.30;;
32780;SDS011;19136;47.032;15.502;2023-07-20T12:46:16;5.40;;;2.25;;
32780;SDS011;19136;47.032;15.502;2023-07-20T12:48:42;7.40;;;2.35;;
32780;SDS011;19136;47.032;15.502;2023-07-20T12:51:09;7.38;;;2.00;;
32780;SDS011;19136;47.032;15.502;2023-07-20T12:53:35;4.63;;;2.33;;
32780;SDS011;19136;47.032;15.502;2023-07-20T12:56:01;4.60;;;2.03;;
32780;SDS011;19136;47.032;15.502;2023-07-20T12:58:27;2.85;;;1.95;;
32780;SDS011;19136;47.032;15.502;2023-07-20T13:00:53;4.57;;;2.10;;
32780;SDS011;19136;47.032;15.502;2023-07-20T13:03:19;5.63;;;2.28;;
32780;SDS011;19136;47.032;15.502;2023-07-20T13:05:48;5.07;;;2.97;;
32780;SDS011;19136;47.032;15.502;2023-07-20T13:08:14;4.30;;;2.20;;
32780;SDS011;19136;47.032;15.502;2023-07-20T13:10:43;7.35;;;2.20;;
32780;SDS011;19136;47.032;15.502;2023-07-20T13:13:09;7.97;;;2.03;;
32780;SDS011;19136;47.032;15.502;2023-07-20T13:15:42;7.18;;;2.30;;
32780;SDS011;19136;47.032;15.502;2023-07-20T13:18:08;5.30;;;2.10;;
32780;SDS011;19136;47.032;15.502;2023-07-20T13:20:34;7.20;;;2.08;;
32780;SDS011;19136;47.032;15.502;2023-07-20T13:23:02;7.18;;;3.00;;
32780;SDS011;19136;47.032;15.502;2023-07-20T13:25:33;5.00;;;2.20;;
32780;SDS011;19136;47.032;15.502;2023-07-20T13:27:58;3.70;;;2.13;;
32780;SDS011;19136;47.032;15.502;2023-07-20T13:30:24;7.97;;;1.90;;
32780;SDS011;19136;47.032;15.502;2023-07-20T13:32:51;6.95;;;1.70;;
32780;SDS011;19136;47.032;15.502;2023-07-20T13:35:17;5.00;;;2.67;;
32780;SDS011;19136;47.032;15.502;2023-07-20T13:37:43;7.10;;;2.65;;
32780;SDS011;19136;47.032;15.502;2023-07-20T13:40:10;4.65;;;2.45;;
32780;SDS011;19136;47.032;15.502;2023-07-20T13:42:42;7.30;;;2.40;;
32780;SDS011;19136;47.032;15.502;2023-07-20T13:45:14;5.53;;;2.30;;
32780;SDS011;19136;47.032;15.502;2023-07-20T13:47:45;4.95;;;2.65;;
32780;SDS011;19136;47.032;15.502;2023-07-20T13:50:11;8.50;;;3.90;;
32780;SDS011;19136;47.032;15.502;2023-07-20T13:52:37;8.88;;;3.63;;
32780;SDS011;19136;47.032;15.502;2023-07-20T13:55:03;7.88;;;2.90;;
32780;SDS011;19136;47.032;15.502;2023-07-20T13:57:29;6.63;;;2.90;;
32780;SDS011;19136;47.032;15.502;2023-07-20T13:59:55;5.05;;;2.47;;
32780;SDS011;19136;47.032;15.502;2023-07-20T14:02:22;9.48;;;3.92;;
32780;SDS011;19136;47.032;15.502;2023-07-20T14:04:48;6.70;;;3.85;;
32780;SDS011;19136;47.032;15.502;2023-07-20T14:07:14;6.88;;;3.20;;
32780;SDS011;19136;47.032;15.502;2023-07-20T14:09:41;4.15;;;2.83;;
32780;SDS011;19136;47.032;15.502;2023-07-20T14:12:09;9.95;;;2.85;;
32780;SDS011;19136;47.032;15.502;2023-07-20T14:14:38;4.22;;;2.53;;
32780;SDS011;19136;47.032;15.502;2023-07-20T14:17:07;6.78;;;2.50;;
32780;SDS011;19136;47.032;15.502;2023-07-20T14:19:32;4.75;;;2.70;;
32780;SDS011;19136;47.032;15.502;2023-07-20T14:21:58;4.57;;;2.63;;
32780;SDS011;19136;47.032;15.502;2023-07-20T14:24:29;5.93;;;3.03;;
32780;SDS011;19136;47.032;15.502;2023-07-20T14:26:55;6.15;;;2.75;;
32780;SDS011;19136;47.032;15.502;2023-07-20T14:29:21;7.43;;;2.55;;
32780;SDS011;19136;47.032;15.502;2023-07-20T14:31:47;7.88;;;2.70;;
32780;SDS011;19136;47.032;15.502;2023-07-20T14:34:17;8.55;;;2.80;;
32780;SDS011;19136;47.032;15.502;2023-07-20T14:36:45;11.27;;;3.05;;
32780;SDS011;19136;47.032;15.502;2023-07-20T14:39:16;6.78;;;3.00;;
32780;SDS011;19136;47.032;15.502;2023-07-20T14:41:42;4.38;;;2.90;;
32780;SDS011;19136;47.032;15.502;2023-07-20T14:44:10;6.25;;;2.85;;
32780;SDS011;19136;47.032;15.502;2023-07-20T14:46:36;5.47;;;2.70;;